createdAt,value
2023-05-25T00:02:19.041Z,83.89
2023-05-25T00:04:55.600Z,84.29
2023-05-25T00:07:23.056Z,84.34
2023-05-25T00:09:56.500Z,84.51
2023-05-25T00:12:23.960Z,84.42
2023-05-25T00:14:57.605Z,84.84
2023-05-25T00:17:25.023Z,84.76
2023-05-25T00:19:59.630Z,85.07
2023-05-25T00:22:29.470Z,85.09
2023-05-25T00:25:03.468Z,85.11
2023-05-25T00:27:31.277Z,85.13
2023-05-25T00:29:59.201Z,85.48
2023-05-25T00:32:33.532Z,85.68
2023-05-25T00:35:09.724Z,85.82
2023-05-25T00:37:43.305Z,85.34
2023-05-25T00:40:21.640Z,85.99
2023-05-25T00:42:58.386Z,86.08
2023-05-25T00:45:25.786Z,86.31
2023-05-25T00:48:01.450Z,86.67
2023-05-25T00:50:43.218Z,87.09
2023-05-25T00:53:18.424Z,86.87
2023-05-25T00:56:09.367Z,87.53
2023-05-25T00:58:46.546Z,87.79
2023-05-25T01:01:17.476Z,87.91
2023-05-25T01:04:02.454Z,88.33
2023-05-25T01:06:33.756Z,88.07
2023-05-25T01:09:12.897Z,88.31
2023-05-25T01:11:50.353Z,88.15
2023-05-25T01:14:28.589Z,88.19
2023-05-25T01:16:56.869Z,88.27
2023-05-25T01:19:30.993Z,88.61
2023-05-25T01:22:25.054Z,88.03
2023-05-25T01:25:03.851Z,88.47
2023-05-25T01:27:46.721Z,88.35
2023-05-25T01:30:23.716Z,87.29
2023-05-25T01:32:51.560Z,87.25
2023-05-25T01:35:32.645Z,87.50
2023-05-25T01:38:06.531Z,87.52
2023-05-25T01:40:46.581Z,87.82
2023-05-25T01:43:20.534Z,88.33
2023-05-25T01:45:48.385Z,88.94
2023-05-25T01:48:33.553Z,88.39
2023-05-25T01:51:23.587Z,88.04
2023-05-25T01:53:58.969Z,87.61
2023-05-25T01:56:39.963Z,88.02
2023-05-25T01:59:15.810Z,88.23
2023-05-25T02:01:53.824Z,88.56
2023-05-25T02:04:24.769Z,88.34
2023-05-25T02:07:06.525Z,88.22
2023-05-25T02:09:40.552Z,88.92
2023-05-25T02:12:14.640Z,89.30
2023-05-25T02:14:55.410Z,88.99
2023-05-25T02:17:34.709Z,89.15
2023-05-25T02:20:08.710Z,89.27
2023-05-25T02:22:44.539Z,89.39
2023-05-25T02:25:12.164Z,89.50
2023-05-25T02:27:48.537Z,88.97
2023-05-25T02:30:16.153Z,88.15
2023-05-25T02:32:50.518Z,88.53
2023-05-25T02:35:18.202Z,88.86
2023-05-25T02:37:52.498Z,88.77
2023-05-25T02:40:32.453Z,88.33
2023-05-25T02:42:59.565Z,89.03
2023-05-25T02:45:33.758Z,89.14
2023-05-25T02:48:01.198Z,89.40
2023-05-25T02:50:38.235Z,89.20
2023-05-25T02:53:08.794Z,89.03
2023-05-25T02:55:42.786Z,89.26
2023-05-25T02:58:15.335Z,89.67
2023-05-25T03:00:49.600Z,89.89
2023-05-25T03:03:25.938Z,89.52
2023-05-25T03:05:56.394Z,88.89
2023-05-25T03:08:33.172Z,88.62
2023-05-25T03:11:07.032Z,88.25
2023-05-25T03:13:41.989Z,87.70
2023-05-25T03:16:12.301Z,88.94
2023-05-25T03:18:48.587Z,88.50
2023-05-25T03:21:18.618Z,88.28
2023-05-25T03:23:56.982Z,88.72
2023-05-25T03:26:26.210Z,88.78
2023-05-25T03:28:59.583Z,88.64
2023-05-25T03:31:33.725Z,88.44
2023-05-25T03:34:10.574Z,88.63
2023-05-25T03:36:45.629Z,88.53
2023-05-25T03:39:26.514Z,89.08
2023-05-25T03:41:57.206Z,89.14
2023-05-25T03:44:30.651Z,89.05
2023-05-25T03:46:57.918Z,88.96
2023-05-25T03:49:39.253Z,89.00
2023-05-25T03:52:13.485Z,89.32
2023-05-25T03:54:43.382Z,89.55
2023-05-25T03:57:22.400Z,89.49
2023-05-25T03:59:52.241Z,89.64
2023-05-25T04:02:25.700Z,89.69
2023-05-25T04:04:54.037Z,90.02
2023-05-25T04:07:35.895Z,90.37
2023-05-25T04:10:06.029Z,90.11
2023-05-25T04:12:40.607Z,90.56
2023-05-25T04:15:16.738Z,91.02
2023-05-25T04:17:51.590Z,91.53
2023-05-25T04:20:22.409Z,92.03
2023-05-25T04:22:56.673Z,92.03
2023-05-25T04:25:29.367Z,91.89
2023-05-25T04:28:05.106Z,91.82
2023-05-25T04:30:35.028Z,91.85
2023-05-25T04:33:03.252Z,91.71
2023-05-25T04:35:38.734Z,91.13
2023-05-25T04:38:27.745Z,90.95
2023-05-25T04:41:11.409Z,90.75
2023-05-25T04:43:40.415Z,90.30
2023-05-25T04:46:20.716Z,90.04
2023-05-25T04:48:48.587Z,90.52
2023-05-25T04:51:22.629Z,90.36
2023-05-25T04:53:50.468Z,90.21
2023-05-25T04:56:24.636Z,90.20
2023-05-25T04:58:52.959Z,90.41
2023-05-25T05:01:35.849Z,90.57
2023-05-25T05:04:03.214Z,90.36
2023-05-25T05:06:44.229Z,90.81
2023-05-25T05:09:18.522Z,90.07
2023-05-25T05:11:46.437Z,90.64
2023-05-25T05:14:20.642Z,90.59
2023-05-25T05:16:54.809Z,89.82
2023-05-25T05:19:23.290Z,90.12
2023-05-25T05:21:50.533Z,90.12
2023-05-25T05:24:24.922Z,90.32
2023-05-25T05:26:58.989Z,89.00
2023-05-25T05:29:34.605Z,89.95
2023-05-25T05:32:01.845Z,90.07
2023-05-25T05:34:36.575Z,90.23
2023-05-25T05:37:03.676Z,89.96
2023-05-25T05:39:43.741Z,89.66
2023-05-25T05:42:13.419Z,90.04
2023-05-25T05:44:47.583Z,89.60
2023-05-25T05:47:21.685Z,88.94
2023-05-25T05:49:48.966Z,88.74
2023-05-25T05:52:22.601Z,88.78
2023-05-25T05:54:58.645Z,88.85
2023-05-25T05:57:28.646Z,88.86
2023-05-25T06:00:02.678Z,87.77
2023-05-25T06:02:33.421Z,88.08
2023-05-25T06:05:08.772Z,88.27
2023-05-25T06:07:39.535Z,88.10
2023-05-25T06:10:14.107Z,87.87
2023-05-25T06:12:41.370Z,87.29
2023-05-25T06:15:12.353Z,86.85
2023-05-25T06:17:46.619Z,86.82
2023-05-25T06:20:15.545Z,86.23
2023-05-25T06:22:52.742Z,85.92
2023-05-25T06:25:24.219Z,85.53
2023-05-25T06:27:57.717Z,85.94
2023-05-25T06:30:31.729Z,85.45
2023-05-25T06:32:59.356Z,85.70
2023-05-25T06:35:33.711Z,86.11
2023-05-25T06:38:10.057Z,86.01
2023-05-25T06:40:49.826Z,85.63
2023-05-25T06:43:20.764Z,85.28
2023-05-25T06:45:57.573Z,85.22
2023-05-25T06:48:27.555Z,84.74
2023-05-25T06:51:01.677Z,84.28
2023-05-25T06:53:37.864Z,82.95
2023-05-25T06:56:11.559Z,83.30
2023-05-25T06:58:39.064Z,82.35
2023-05-25T07:01:13.100Z,81.74
2023-05-25T07:03:40.770Z,81.05
2023-05-25T07:06:14.608Z,80.90
2023-05-25T07:08:41.923Z,80.44
2023-05-25T07:11:13.065Z,80.80
2023-05-25T07:13:47.672Z,80.98
2023-05-25T07:16:15.464Z,81.23
2023-05-25T07:18:51.694Z,81.39
2023-05-25T07:21:30.744Z,81.28
2023-05-25T07:24:11.269Z,81.05
2023-05-25T07:26:44.704Z,80.24
2023-05-25T07:29:19.679Z,79.73
2023-05-25T07:31:47.234Z,79.63
2023-05-25T07:34:22.718Z,79.61
2023-05-25T07:37:01.681Z,77.74
2023-05-25T07:39:36.179Z,77.78
2023-05-25T07:42:12.714Z,77.05
2023-05-25T07:44:46.783Z,77.70
2023-05-25T07:47:23.673Z,77.64
2023-05-25T07:49:53.527Z,76.81
2023-05-25T07:52:30.800Z,76.52
2023-05-25T07:54:58.131Z,74.53
2023-05-25T07:57:32.017Z,73.30
2023-05-25T07:59:59.231Z,74.24
2023-05-25T08:02:32.790Z,72.40
2023-05-25T08:05:04.594Z,71.28
2023-05-25T08:07:42.948Z,70.87
2023-05-25T08:10:12.346Z,70.33
2023-05-25T08:12:49.671Z,71.33
2023-05-25T08:15:21.542Z,71.14
2023-05-25T08:17:57.742Z,70.74
2023-05-25T08:20:28.544Z,70.02
2023-05-25T08:23:03.614Z,71.03
2023-05-25T08:25:30.661Z,70.63
2023-05-25T08:27:58.720Z,71.68
2023-05-25T08:30:32.659Z,72.10
2023-05-25T08:32:59.846Z,71.46
2023-05-25T08:35:35.727Z,71.28
2023-05-25T08:38:23.844Z,71.15
2023-05-25T08:41:21.661Z,69.88
2023-05-25T08:44:00.322Z,68.54
2023-05-25T08:46:40.755Z,68.08
2023-05-25T08:49:13.386Z,67.83
2023-05-25T08:52:01.535Z,66.91
2023-05-25T08:54:41.185Z,66.54
2023-05-25T08:57:22.656Z,66.15
2023-05-25T09:00:05.657Z,65.23
2023-05-25T09:02:41.407Z,64.58
2023-05-25T09:05:16.711Z,64.35
2023-05-25T09:07:51.676Z,65.06
2023-05-25T09:10:25.677Z,65.65
2023-05-25T09:13:06.609Z,62.71
2023-05-25T09:15:39.963Z,65.04
2023-05-25T09:18:13.685Z,62.34
2023-05-25T09:20:41.458Z,63.24
2023-05-25T09:23:16.632Z,63.34
2023-05-25T09:25:51.614Z,63.54
2023-05-25T09:30:58.755Z,63.17
2023-05-25T09:33:26.536Z,60.63
2023-05-25T09:36:00.705Z,61.81
2023-05-25T09:38:33.890Z,60.18
2023-05-25T09:41:13.745Z,58.49
2023-05-25T09:43:54.723Z,56.99
2023-05-25T09:46:28.964Z,58.32
2023-05-25T09:49:02.752Z,58.53
2023-05-25T09:51:33.432Z,57.93
2023-05-25T09:54:11.732Z,58.88
2023-05-25T09:56:44.669Z,58.00
2023-05-25T09:59:12.509Z,56.38
2023-05-25T10:01:46.051Z,55.80
2023-05-25T10:04:16.866Z,56.82
2023-05-25T10:06:52.765Z,57.01
2023-05-25T10:09:20.777Z,56.79
2023-05-25T10:11:57.685Z,56.86
2023-05-25T10:14:29.312Z,56.04
2023-05-25T10:17:05.709Z,56.18
2023-05-25T10:19:43.378Z,55.75
2023-05-25T10:22:31.659Z,56.94
2023-05-25T10:25:14.783Z,56.82
2023-05-25T10:27:52.224Z,55.45
2023-05-25T10:30:20.548Z,55.65
2023-05-25T10:32:54.713Z,55.79
2023-05-25T10:35:22.205Z,55.51
2023-05-25T10:37:58.749Z,55.11
2023-05-25T10:40:39.666Z,55.98
2023-05-25T10:43:07.250Z,57.76
2023-05-25T10:45:41.782Z,55.85
2023-05-25T10:48:08.820Z,55.24
2023-05-25T10:50:43.708Z,53.40
2023-05-25T10:53:14.348Z,53.40
2023-05-25T10:55:55.761Z,55.15
2023-05-25T10:58:24.038Z,55.83
2023-05-25T11:01:13.789Z,55.77
2023-05-25T11:04:05.964Z,55.37
2023-05-25T11:06:46.849Z,55.29
2023-05-25T11:09:27.245Z,54.83
2023-05-25T11:12:02.750Z,56.29
2023-05-25T11:14:40.302Z,55.99
2023-05-25T11:17:17.698Z,55.00
2023-05-25T11:20:06.790Z,53.42
2023-05-25T11:22:44.774Z,53.57
2023-05-25T11:25:37.114Z,53.08
2023-05-25T11:28:15.725Z,52.15
2023-05-25T11:30:43.272Z,53.30
2023-05-25T11:33:16.919Z,52.30
2023-05-25T11:35:45.846Z,52.12
2023-05-25T11:38:19.755Z,51.02
2023-05-25T11:40:53.479Z,51.20
2023-05-25T11:43:27.774Z,50.95
2023-05-25T11:45:58.009Z,50.89
2023-05-25T11:48:31.831Z,50.71
2023-05-25T11:51:12.764Z,52.28
2023-05-25T11:53:52.842Z,52.40
2023-05-25T11:56:35.440Z,52.11
2023-05-25T11:59:03.290Z,51.71
2023-05-25T12:01:38.830Z,51.30
2023-05-25T12:04:10.927Z,49.00
2023-05-25T12:06:44.811Z,50.16
2023-05-25T12:09:13.258Z,50.27
2023-05-25T12:11:46.831Z,49.90
2023-05-25T12:14:14.340Z,50.55
2023-05-25T12:16:48.788Z,49.52
2023-05-25T12:19:17.157Z,51.20
2023-05-25T12:21:52.053Z,49.01
2023-05-25T12:24:22.037Z,48.19
2023-05-25T12:26:56.857Z,50.27
2023-05-25T12:29:31.891Z,50.50
2023-05-25T12:32:13.030Z,49.44
2023-05-25T12:34:40.197Z,47.29
2023-05-25T12:37:25.876Z,47.14
2023-05-25T12:40:00.215Z,46.42
2023-05-25T12:42:33.924Z,46.51
2023-05-25T12:45:03.545Z,45.57
2023-05-25T12:47:38.794Z,46.57
2023-05-25T12:50:13.569Z,47.61
2023-05-25T12:52:52.839Z,48.03
2023-05-25T12:55:36.796Z,43.12
2023-05-25T12:58:06.591Z,44.42
2023-05-25T13:00:47.745Z,44.14
2023-05-25T13:03:18.106Z,44.68
2023-05-25T13:05:52.924Z,45.62
2023-05-25T13:08:19.933Z,42.92
2023-05-25T13:10:57.898Z,46.04
2023-05-25T13:13:31.849Z,41.69
2023-05-25T13:16:04.920Z,42.06
2023-05-25T13:18:32.434Z,42.15
2023-05-25T13:21:05.971Z,43.03
2023-05-25T13:23:32.964Z,40.67
2023-05-25T13:26:06.811Z,42.00
2023-05-25T13:28:39.891Z,39.60
2023-05-25T13:31:07.170Z,40.63
2023-05-25T13:33:40.933Z,39.34
2023-05-25T13:36:14.975Z,38.44
2023-05-25T13:38:48.844Z,39.30
2023-05-25T13:41:22.383Z,37.69
2023-05-25T13:43:55.809Z,36.74
2023-05-25T13:46:34.746Z,37.14
2023-05-25T13:49:08.826Z,37.86
2023-05-25T13:51:35.943Z,39.99
2023-05-25T13:54:09.868Z,39.66
2023-05-25T13:56:36.904Z,38.96
2023-05-25T13:59:03.707Z,37.56
2023-05-25T14:01:37.013Z,36.92
2023-05-25T14:04:04.933Z,38.05
2023-05-25T14:06:38.965Z,37.02
2023-05-25T14:09:06.043Z,36.67
2023-05-25T14:11:39.858Z,37.10
2023-05-25T14:14:19.489Z,36.10
2023-05-25T14:17:00.874Z,36.17
2023-05-25T14:19:28.277Z,36.57
2023-05-25T14:22:12.666Z,37.30
2023-05-25T14:24:41.721Z,36.94
2023-05-25T14:27:15.970Z,35.29
2023-05-25T14:29:42.893Z,38.32
2023-05-25T14:32:15.888Z,36.22
2023-05-25T14:34:49.906Z,36.47
2023-05-25T14:37:17.052Z,35.65
2023-05-25T14:39:50.863Z,36.71
2023-05-25T14:42:24.064Z,36.51
2023-05-25T14:44:57.850Z,36.45
2023-05-25T14:47:24.733Z,36.13
2023-05-25T14:49:57.859Z,34.96
2023-05-25T14:52:24.747Z,36.87
2023-05-25T14:54:57.916Z,36.61
2023-05-25T14:57:24.749Z,35.28
2023-05-25T14:59:57.947Z,36.09
2023-05-25T15:02:24.932Z,37.40
2023-05-25T15:05:00.944Z,37.00
2023-05-25T15:07:33.863Z,35.91
2023-05-25T15:10:00.896Z,36.29
2023-05-25T15:12:33.865Z,36.72
2023-05-25T15:15:06.903Z,36.22
2023-05-25T15:17:39.883Z,36.12
2023-05-25T15:20:07.281Z,37.00
2023-05-25T15:22:40.899Z,37.75
2023-05-25T15:25:08.080Z,36.28
2023-05-25T15:27:41.963Z,37.91
2023-05-25T15:30:09.697Z,38.07
2023-05-25T15:32:43.041Z,37.79
2023-05-25T15:35:10.437Z,38.27
2023-05-25T15:37:44.004Z,38.31
2023-05-25T15:40:17.902Z,38.48
2023-05-25T15:42:50.976Z,38.25
2023-05-25T15:45:18.772Z,38.72
2023-05-25T15:47:45.727Z,37.75
2023-05-25T15:50:18.988Z,37.39
2023-05-25T15:52:46.955Z,37.77
2023-05-25T15:55:21.356Z,38.19
2023-05-25T15:57:48.327Z,38.81
2023-05-25T16:00:22.058Z,38.15
2023-05-25T16:02:49.116Z,39.06
2023-05-25T16:05:23.076Z,39.44
2023-05-25T16:07:49.943Z,39.16
2023-05-25T16:10:23.984Z,40.55
2023-05-25T16:12:51.108Z,39.59
2023-05-25T16:15:24.992Z,39.68
2023-05-25T16:17:52.234Z,39.94
2023-05-25T16:20:26.045Z,39.55
2023-05-25T16:23:02.498Z,39.06
2023-05-25T16:25:29.862Z,39.77
2023-05-25T16:32:05.901Z,40.26
2023-05-25T17:01:14.074Z,44.84
2023-05-25T17:03:41.068Z,44.05
2023-05-25T17:06:17.991Z,44.36
2023-05-25T17:08:44.774Z,44.46
2023-05-25T17:11:17.938Z,44.62
2023-05-25T17:13:44.813Z,45.69
2023-05-25T17:16:18.131Z,46.53
2023-05-25T17:18:45.156Z,46.11
2023-05-25T17:21:22.073Z,45.88
2023-05-25T17:23:49.599Z,47.10
2023-05-25T17:26:22.954Z,47.26
2023-05-25T17:28:55.976Z,47.21
2023-05-25T17:31:23.189Z,47.81
2023-05-25T17:33:56.950Z,47.21
2023-05-25T17:36:30.011Z,47.87
2023-05-25T17:38:57.892Z,48.47
2023-05-25T17:41:31.151Z,48.95
2023-05-25T17:43:58.009Z,48.42
2023-05-25T17:46:32.094Z,49.74
2023-05-25T17:49:04.795Z,49.95
2023-05-25T17:51:38.055Z,49.76
2023-05-25T17:54:11.005Z,49.67
2023-05-25T17:56:37.844Z,49.72
2023-05-25T17:59:11.154Z,51.16
2023-05-25T18:01:44.670Z,51.17
2023-05-25T18:04:18.071Z,51.63
2023-05-25T18:06:45.293Z,50.96
2023-05-25T18:09:19.030Z,51.37
2023-05-25T18:11:46.680Z,51.85
2023-05-25T18:14:13.777Z,51.90
2023-05-25T18:16:53.244Z,52.75
2023-05-25T18:19:27.060Z,52.73
2023-05-25T18:21:53.878Z,52.39
2023-05-25T18:24:27.105Z,52.98
2023-05-25T18:27:06.054Z,53.69
2023-05-25T18:29:39.109Z,53.59
2023-05-25T18:32:15.028Z,54.12
2023-05-25T18:34:44.453Z,53.77
2023-05-25T18:37:42.135Z,54.14
2023-05-25T18:40:16.784Z,55.05
2023-05-25T18:42:50.076Z,55.42
2023-05-25T18:45:23.683Z,55.65
2023-05-25T18:47:58.243Z,55.90
2023-05-25T18:50:43.153Z,56.13
2023-05-25T18:53:21.361Z,57.01
2023-05-25T18:55:48.921Z,57.19
2023-05-25T18:58:24.771Z,57.56
2023-05-25T19:01:05.106Z,57.83
2023-05-25T19:03:58.559Z,57.61
2023-05-25T19:06:31.274Z,58.31
2023-05-25T19:09:05.152Z,58.35
2023-05-25T19:11:32.652Z,58.51
2023-05-25T19:14:07.052Z,59.38
2023-05-25T19:16:37.548Z,59.30
2023-05-25T19:19:14.120Z,59.65
2023-05-25T19:21:45.480Z,59.83
2023-05-25T19:24:12.763Z,59.57
2023-05-25T19:26:49.577Z,60.35
2023-05-25T19:29:24.165Z,60.94
2023-05-25T19:31:51.421Z,60.37
2023-05-25T19:34:25.025Z,61.27
2023-05-25T19:37:07.573Z,61.60
2023-05-25T19:39:38.230Z,60.89
2023-05-25T19:42:13.113Z,62.28
2023-05-25T19:44:41.420Z,62.65
2023-05-25T19:47:15.101Z,62.56
2023-05-25T19:49:43.130Z,62.33
2023-05-25T19:52:17.120Z,61.96
2023-05-25T19:54:45.592Z,62.70
2023-05-25T19:57:35.113Z,63.63
2023-05-25T20:00:26.947Z,64.00
2023-05-25T20:03:01.264Z,64.06
2023-05-25T20:05:28.815Z,64.16
2023-05-25T20:08:03.067Z,64.26
2023-05-25T20:10:39.107Z,65.02
2023-05-25T20:13:20.053Z,64.29
2023-05-25T20:15:48.779Z,65.21
2023-05-25T20:18:24.221Z,65.25
2023-05-25T20:20:54.519Z,65.80
2023-05-25T20:23:21.954Z,66.11
2023-05-25T20:25:56.136Z,66.28
2023-05-25T20:28:30.080Z,66.10
2023-05-25T20:31:04.241Z,66.27
2023-05-25T20:33:31.629Z,66.32
2023-05-25T20:36:08.307Z,66.67
2023-05-25T20:38:38.638Z,66.39
2023-05-25T20:41:14.810Z,66.77
2023-05-25T20:43:49.088Z,67.09
2023-05-25T20:46:23.133Z,67.47
2023-05-25T20:48:51.363Z,68.03
2023-05-25T20:51:26.265Z,67.83
2023-05-25T20:53:54.273Z,68.29
2023-05-25T20:56:31.048Z,68.01
2023-05-25T20:59:05.205Z,68.32
2023-05-25T21:01:52.228Z,68.66
2023-05-25T21:04:19.653Z,68.27
2023-05-25T21:06:46.986Z,69.28
2023-05-25T21:09:21.212Z,69.59
2023-05-25T21:11:48.949Z,70.25
2023-05-25T21:14:23.094Z,70.05
2023-05-25T21:16:50.386Z,69.93
2023-05-25T21:19:24.182Z,70.62
2023-05-25T21:21:52.088Z,70.80
2023-05-25T21:24:22.236Z,70.75
2023-05-25T21:26:56.065Z,71.17
2023-05-25T21:29:30.104Z,71.46
2023-05-25T21:32:02.544Z,72.01
2023-05-25T21:34:36.085Z,71.51
2023-05-25T21:37:05.606Z,71.76
2023-05-25T21:39:32.976Z,72.81
2023-05-25T21:42:15.968Z,72.18
2023-05-25T21:44:46.504Z,71.53
2023-05-25T21:47:24.244Z,73.13
2023-05-25T21:50:05.193Z,73.34
2023-05-25T21:52:35.296Z,72.79
2023-05-25T21:55:02.819Z,72.75
2023-05-25T21:57:37.450Z,73.15
2023-05-25T22:00:06.852Z,73.90
2023-05-25T22:02:50.263Z,73.28
2023-05-25T22:05:31.323Z,74.24
2023-05-25T22:08:05.433Z,74.13
2023-05-25T22:10:42.113Z,74.21
2023-05-25T22:13:18.720Z,73.95
2023-05-25T22:15:46.097Z,74.20
2023-05-25T22:18:25.652Z,74.65
2023-05-25T22:20:53.334Z,75.08
2023-05-25T22:23:27.237Z,74.78
2023-05-25T22:25:58.839Z,74.97
2023-05-25T22:28:26.235Z,75.68
2023-05-25T22:31:00.228Z,76.53
2023-05-25T22:33:40.256Z,75.65
2023-05-25T22:36:07.730Z,75.91
2023-05-25T22:38:44.256Z,75.48
2023-05-25T22:41:14.602Z,75.89
2023-05-25T22:43:48.256Z,76.16
2023-05-25T22:46:32.025Z,76.26
2023-05-25T22:49:01.646Z,76.78
2023-05-25T22:51:41.687Z,76.09
2023-05-25T22:54:10.364Z,76.66
2023-05-25T22:56:53.254Z,76.93
2023-05-25T22:59:24.713Z,76.49
2023-05-25T23:02:05.735Z,77.26
2023-05-25T23:04:35.802Z,77.63
2023-05-25T23:07:17.189Z,76.92
2023-05-25T23:09:51.107Z,77.47
2023-05-25T23:12:25.305Z,76.73
2023-05-25T23:14:53.756Z,77.01
2023-05-25T23:17:27.093Z,77.13
2023-05-25T23:22:43.289Z,77.55
2023-05-25T23:25:17.327Z,78.25
2023-05-25T23:27:47.696Z,78.31
2023-05-25T23:30:24.246Z,78.50
2023-05-25T23:32:52.134Z,78.50
2023-05-25T23:35:29.218Z,78.58
2023-05-25T23:37:57.881Z,78.21
2023-05-25T23:40:32.534Z,79.06
2023-05-25T23:43:02.687Z,78.98
2023-05-25T23:45:37.380Z,79.46
2023-05-25T23:48:07.558Z,79.68
2023-05-25T23:50:42.282Z,79.51
2023-05-25T23:53:16.210Z,78.96
2023-05-25T23:55:43.739Z,79.96
2023-05-25T23:58:19.372Z,80.11
